Latest Weather Observations for Yarrawonga

IDN60801

Issued at 9:02 pm EST Sunday 19 April 2015 (issued every 30 minutes, with the page automatically refreshed every 10 minutes)

About weather observations | Map of weather stations | Latest weather observations for NSW | Other Formats
Station Details ID: 081124 Name: YARRAWONGA Lat: -36.03 Lon: 146.03 Height: 128.9 m
Data from the previous 72 hours. | See also: Recent months at Yarrawonga
Date/Time
EST
Temp
°C
App
Temp
°C
Dew
Point
Rel
Hum
%
Delta-T
°C
Wind Press
QNH
hPa
Press
MSL
hPa
Rain
since 9 am
mm
Dir
 
Spd
km/h
Gust
km/h
Spd
kts
Gust
kts
19/09:00pm 8.8 3.9 4.0 72 2.1 SSW 19 22 10 12 - 1030.4 0.0
19/08:30pm 9.1 4.2 4.1 71 2.2 SSW 19 24 10 13 1030.0 1029.9 0.0
19/08:00pm 9.4 4.6 4.4 71 2.2 SSW 19 22 10 12 1029.7 1029.6 0.0
19/07:30pm 10.1 3.9 4.5 68 2.5 SSW 26 33 14 18 1029.1 1029.0 0.0
19/07:00pm 10.4 4.3 4.8 68 2.5 SSW 26 35 14 19 1028.5 1028.4 0.0
19/06:30pm 11.0 4.1 4.7 65 2.9 SSW 30 39 16 21 1027.9 1027.8 0.0
19/06:00pm 11.7 4.9 5.1 64 3.0 SW 30 39 16 21 1027.2 1027.1 0.0
19/05:30pm 13.1 6.3 2.9 50 4.5 SSW 28 39 15 21 1026.7 1026.6 0.0
19/05:00pm 13.9 4.7 1.5 43 5.4 SSW 39 52 21 28 1026.3 1026.2 0.0
19/04:41pm 14.4 6.5 1.3 41 5.7 SSW 32 52 17 28 1026.0 1025.8 0.0
19/04:30pm 14.6 6.9 2.2 43 5.5 SSW 32 44 17 24 1025.9 1025.7 0.0
19/04:00pm 15.4 8.0 3.9 46 5.3 SSW 32 43 17 23 1025.5 1025.3 0.0
19/03:30pm 15.6 7.8 2.7 42 5.8 SSW 33 46 18 25 1025.1 1024.9 0.0
19/03:00pm 15.7 8.2 4.4 47 5.3 SSW 33 44 18 24 1024.9 1024.7 0.0
19/02:30pm 15.7 7.9 5.0 49 5.1 SSW 35 46 19 25 1024.7 1024.5 0.0
19/02:00pm 15.9 7.8 6.9 55 4.4 SSW 39 48 21 26 1024.4 1024.2 0.0
19/01:30pm 15.8 7.8 5.7 51 4.9 SSW 37 52 20 28 1024.4 1024.2 0.0
19/01:00pm 15.8 7.5 6.0 52 4.7 SSW 39 52 21 28 1024.2 1024.0 0.0
19/12:30pm 15.4 7.1 5.9 53 4.6 SSW 39 52 21 28 1024.3 1024.1 0.0
19/12:00pm 15.1 7.7 6.7 57 4.1 SW 35 48 19 26 1024.3 1024.1 0.0
19/11:30am 15.0 7.6 6.8 58 4.0 SSW 35 50 19 27 1024.3 1024.1 0.0
19/11:00am 14.3 6.6 6.9 61 3.6 SW 37 52 20 28 1024.1 1023.9 0.0
19/10:30am 14.0 6.8 7.5 65 3.2 SW 35 50 19 27 1023.8 1023.6 0.0
19/10:00am 12.9 4.8 7.1 68 2.8 SW 39 48 21 26 1023.7 1023.5 0.0
19/09:30am 12.4 4.9 7.9 74 2.2 SW 37 48 20 26 1023.4 1023.2 0.0
19/09:00am 11.6 4.8 7.5 76 2.0 SW 33 46 18 25 1023.1 1022.9 6.6
19/08:30am 10.7 4.5 7.9 83 1.4 SW 30 39 16 21 1022.9 1022.8 6.6
19/08:00am 10.0 4.6 7.8 86 1.1 SW 26 35 14 19 1022.2 1022.1 6.6
19/07:30am 9.3 4.6 7.6 89 0.8 SW 22 32 12 17 1021.5 1021.4 6.6
19/07:00am 8.8 4.4 7.4 91 0.7 SW 20 26 11 14 1020.9 1020.8 6.6
19/06:30am 8.9 4.2 7.7 92 0.6 SW 22 32 12 17 1020.4 1020.3 6.6
19/06:00am 9.3 4.3 7.9 91 0.7 SW 24 37 13 20 1019.8 1019.7 6.6
19/05:30am 9.4 4.8 8.2 92 0.6 WSW 22 30 12 16 1019.5 1019.4 6.6
19/05:00am 9.9 4.3 8.7 92 0.6 WSW 28 35 15 19 1019.1 1018.9 6.6
19/04:30am 10.2 5.4 9.0 92 0.6 WSW 24 33 13 18 1018.6 1018.4 6.6
19/04:00am 10.8 6.7 10.0 95 0.4 WSW 22 33 12 18 1018.3 1018.1 6.6
19/03:30am 10.8 6.5 9.4 91 0.7 WSW 22 32 12 17 1018.0 1017.8 6.6
19/03:00am 10.7 7.1 10.4 98 0.2 SW 20 28 11 15 1017.3 1017.1 6.6
19/02:30am 10.8 5.7 10.5 98 0.2 SW 28 39 15 21 1017.8 1017.6 6.4
19/02:00am 11.4 7.2 11.1 98 0.2 SW 24 32 13 17 1017.4 1017.2 6.2
19/01:30am 11.9 7.8 11.6 98 0.2 SW 24 32 13 17 1017.1 1016.9 6.0
19/01:00am 14.4 11.7 13.0 91 0.8 W 19 30 10 16 1016.6 1016.4 5.2
19/12:30am 14.6 12.8 12.1 85 1.4 WNW 13 20 7 11 1016.2 1016.0 5.2
19/12:00am 14.7 12.8 11.8 83 1.6 WNW 13 20 7 11 1016.2 1016.0 5.2
 
Date/Time
EST
Temp
°C
App
Temp
°C
Dew
Point
Rel
Hum
%
Delta-T
°C
Wind Press
QNH
hPa
Press
MSL
hPa
Rain
since 9 am
mm
Dir
 
Spd
km/h
Gust
km/h
Spd
kts
Gust
kts
18/11:30pm 14.2 13.1 11.9 86 1.2 NW 9 15 5 8 1016.0 1015.8 5.2
18/11:00pm 14.1 12.8 12.5 90 0.9 NNW 11 15 6 8 1016.2 1016.0 5.2
18/10:30pm 13.9 12.8 12.1 89 1.0 NW 9 13 5 7 1016.2 1016.0 5.2
18/10:00pm 12.9 12.0 12.6 98 0.2 NNW 9 11 5 6 1016.3 1016.1 5.2
18/09:30pm 12.7 11.7 12.4 98 0.2 NNW 9 9 5 5 1016.1 1015.9 5.2
18/09:00pm 13.0 12.4 12.2 95 0.4 NNW 7 9 4 5 1016.0 1015.8 5.2
18/08:30pm 13.1 12.7 12.3 95 0.4 NW 6 9 3 5 1015.7 1015.5 5.2
18/08:00pm 13.4 13.0 12.3 93 0.6 WNW 6 7 3 4 1015.2 1015.0 5.2
18/07:30pm 13.7 13.4 12.6 93 0.6 WNW 6 9 3 5 1015.2 1015.0 5.2
18/07:00pm 14.3 13.5 12.9 91 0.8 WNW 9 13 5 7 1015.0 1014.8 5.2
18/06:30pm 14.5 13.4 13.0 91 0.8 W 11 15 6 8 1014.3 1014.2 5.2
18/06:00pm 15.0 13.8 12.9 87 1.2 W 11 17 6 9 1014.0 1013.9 5.2
18/05:30pm 15.8 14.1 13.5 86 1.3 W 15 20 8 11 1013.6 1013.5 5.2
18/05:00pm 15.8 15.5 14.5 92 0.7 WNW 9 15 5 8 1013.3 1013.2 5.2
18/04:30pm 16.0 15.2 15.0 94 0.6 WSW 13 19 7 10 1012.9 1012.8 5.2
18/04:00pm 16.2 14.3 15.2 94 0.6 W 19 24 10 13 1013.1 1013.0 5.2
18/03:30pm 16.5 15.3 16.2 98 0.2 W 17 22 9 12 1013.2 1013.1 5.2
18/03:00pm 16.7 15.6 16.4 98 0.2 W 17 24 9 13 1013.0 1012.9 5.2
18/02:30pm 17.0 16.4 16.7 98 0.2 W 15 20 8 11 1012.8 1012.7 5.2
18/02:00pm 17.4 17.7 17.1 98 0.2 W 11 15 6 8 1012.8 1012.7 5.2
18/01:30pm 16.7 15.6 16.4 98 0.2 WSW 17 24 9 13 1013.3 1013.2 5.2
18/01:00pm 17.0 16.8 16.7 98 0.2 W 13 19 7 10 1013.1 1013.0 5.2
18/12:30pm 17.0 16.4 16.7 98 0.2 W 15 19 8 10 1013.5 1013.4 5.0
18/12:00pm 17.3 17.6 17.1 99 0.1 W 11 15 6 8 1013.8 1013.7 5.0
18/11:30am 17.4 18.5 17.2 99 0.1 WNW 7 9 4 5 1014.2 1014.1 5.0
18/11:00am 17.1 17.7 16.9 99 0.1 W 9 11 5 6 1014.5 1014.4 5.0
18/10:30am 16.8 17.7 16.6 99 0.1 WSW 7 11 4 6 1014.6 1014.5 4.6
18/10:00am 16.7 18.1 16.5 99 0.1 W 4 6 2 3 1014.8 1014.7 1.2
18/09:30am 16.8 18.3 16.6 99 0.1 WSW 4 6 2 3 1015.1 1014.9 0.4
18/09:00am 16.5 16.9 16.3 99 0.1 WSW 9 11 5 6 1015.1 1014.9 42.8
18/08:30am 16.6 17.6 16.4 99 0.1 SW 6 9 3 5 1014.8 1014.7 42.4
18/08:00am 16.8 17.3 16.5 98 0.2 W 9 13 5 7 1014.6 1014.5 42.0
18/07:30am 18.1 17.2 17.8 98 0.2 N 19 24 10 13 1014.0 1013.9 41.6
18/07:00am 18.0 16.5 17.7 98 0.2 N 22 32 12 17 1013.6 1013.5 41.6
18/06:30am 17.8 16.8 17.5 98 0.2 N 19 30 10 16 1013.7 1013.6 41.6
18/06:00am 17.6 16.9 17.4 99 0.1 NNE 17 26 9 14 1013.7 1013.6 41.6
18/05:30am 17.6 16.9 17.4 99 0.1 N 17 22 9 12 1013.0 1012.9 41.6
18/05:00am 17.7 16.5 17.5 99 0.1 N 20 28 11 15 1013.4 1013.3 41.6
18/04:30am 17.4 16.6 17.2 99 0.1 N 17 24 9 13 1013.4 1013.3 41.4
18/04:00am 17.4 16.6 17.2 99 0.1 NNE 17 24 9 13 1013.1 1013.0 41.4
18/03:30am 17.3 16.1 17.1 99 0.1 NNE 19 24 10 13 1013.4 1013.3 40.6
18/03:00am 17.5 15.8 17.3 99 0.1 N 22 32 12 17 1013.6 1013.5 40.2
18/02:30am 17.4 16.3 17.2 99 0.1 NNE 19 28 10 15 1014.0 1013.9 39.0
18/02:00am 17.4 16.3 17.2 99 0.1 NNE 19 24 10 13 1014.4 1014.3 36.4
18/01:30am 17.5 16.2 17.3 99 0.1 NNE 20 30 11 16 1014.7 1014.6 34.2
18/01:00am 17.5 16.8 17.3 99 0.1 NNE 17 24 9 13 1014.8 1014.7 33.2
18/12:30am 17.3 16.1 17.1 99 0.1 NNE 19 28 10 15 1015.0 1014.8 32.6
18/12:00am 17.4 16.6 17.2 99 0.1 NNE 17 24 9 13 1015.7 1015.5 30.2
 
Date/Time
EST
Temp
°C
App
Temp
°C
Dew
Point
Rel
Hum
%
Delta-T
°C
Wind Press
QNH
hPa
Press
MSL
hPa
Rain
since 9 am
mm
Dir
 
Spd
km/h
Gust
km/h
Spd
kts
Gust
kts
17/11:30pm 17.4 17.0 17.2 99 0.1 NNE 15 20 8 11 1015.7 1015.5 28.4
17/11:00pm 17.4 17.0 17.2 99 0.1 NNE 15 20 8 11 1016.4 1016.2 27.4
17/10:30pm 17.5 17.9 17.3 99 0.1 NNE 11 15 6 8 1016.6 1016.4 25.8
17/10:00pm 17.0 17.2 16.8 99 0.1 ENE 11 15 6 8 1016.8 1016.6 24.8
17/09:30pm 16.5 17.3 16.3 99 0.1 ENE 7 7 4 4 1017.0 1016.8 24.2
17/09:00pm 16.4 17.1 16.2 99 0.1 E 7 9 4 5 1017.0 1016.8 23.4
17/08:30pm 16.2 17.8 16.0 99 0.1 SE 2 6 1 3 1017.3 1017.1 23.0
17/08:00pm 16.1 17.3 15.9 99 0.1 SE 4 6 2 3 1017.4 1017.2 23.0
17/07:30pm 16.0 17.9 15.8 99 0.1 CALM 0 2 0 1 1017.7 1017.5 22.4
17/07:00pm 15.9 16.1 15.7 99 0.1 E 9 11 5 6 1017.5 1017.3 21.0
17/06:30pm 15.7 16.8 15.5 99 0.1 ESE 4 7 2 4 1017.5 1017.3 19.8
17/06:00pm 15.6 16.0 15.4 99 0.1 E 7 11 4 6 1017.4 1017.2 16.6
17/05:30pm 15.6 16.0 15.4 99 0.1 E 7 9 4 5 1017.3 1017.1 16.0
17/05:00pm 15.6 15.7 15.4 99 0.1 E 9 13 5 7 1017.2 1017.0 14.2
17/04:30pm 15.5 15.5 15.3 99 0.1 E 9 11 5 6 1017.4 1017.2 13.4
17/04:00pm 15.3 15.2 15.0 98 0.2 E 9 13 5 7 1017.7 1017.5 13.0
17/03:30pm 15.0 14.8 14.7 98 0.2 ESE 9 13 5 7 1018.1 1017.9 11.0
17/03:00pm 15.0 14.4 14.7 98 0.2 E 11 15 6 8 1018.4 1018.2 9.8
17/02:30pm 14.7 14.8 14.4 98 0.2 ESE 7 11 4 6 1019.1 1018.9 8.0
17/02:00pm 14.7 14.0 14.4 98 0.2 E 11 15 6 8 1019.2 1019.0 4.4
17/01:30pm 14.8 14.2 14.5 98 0.2 E 11 15 6 8 1019.4 1019.2 2.8
17/01:00pm 14.9 14.2 14.3 96 0.3 E 11 15 6 8 1020.1 1020.0 2.0
17/12:30pm 14.9 13.9 13.3 90 0.9 E 11 15 6 8 1020.9 1020.8 1.2
17/12:00pm 15.4 13.7 13.6 89 1.0 E 15 20 8 11 1021.6 1021.5 1.0
17/11:30am 15.1 14.2 13.6 91 0.8 E 11 17 6 9 1021.9 1021.8 0.8
17/11:00am 14.9 15.1 13.1 89 1.0 ENE 4 9 2 5 1022.7 1022.6 0.4
17/10:30am 14.7 14.6 12.2 85 1.4 N 4 4 2 2 1023.5 1023.3 0.2
17/10:00am 14.8 14.1 11.9 83 1.6 NE 7 9 4 5 1023.4 1023.2 0.0
17/09:30am 14.8 14.1 12.1 84 1.5 NE 7 11 4 6 1023.3 1023.1 0.0
17/09:00am 14.8 14.7 12.1 84 1.5 E 4 4 2 2 1023.5 1023.3 0.0
17/08:30am 14.5 13.7 11.1 80 1.8 ESE 6 9 3 5 1023.1 1022.9 0.0
17/08:00am 14.1 13.7 11.1 82 1.6 E 4 6 2 3 1023.2 1023.0 0.0
17/07:30am 13.8 13.8 11.3 85 1.3 N 2 4 1 2 1023.2 1023.0 0.0
17/07:00am 13.5 13.7 10.7 83 1.5 CALM 0 2 0 1 1022.6 1022.5 0.0
17/06:30am 13.6 13.4 10.6 82 1.6 WNW 2 4 1 2 1022.7 1022.6 0.0
17/06:00am 13.7 13.2 10.7 82 1.6 WNW 4 6 2 3 1022.7 1022.6 0.0
17/05:30am 13.7 12.2 10.7 82 1.6 W 9 11 5 6 1022.3 1022.2 0.0
17/05:00am 13.8 12.4 10.8 82 1.6 WSW 9 11 5 6 1022.0 1021.9 0.0
17/04:30am 14.3 12.7 10.3 77 2.1 W 9 11 5 6 1021.9 1021.8 0.0
17/04:00am 14.7 13.6 10.1 74 2.4 WNW 6 7 3 4 1021.4 1021.3 0.0
17/03:30am 14.8 13.7 10.0 73 2.5 NW 6 9 3 5 1021.3 1021.2 0.0
17/03:00am 14.9 13.2 9.9 72 2.6 WSW 9 11 5 6 1021.3 1021.2 0.0
17/02:30am 14.9 13.6 9.9 72 2.6 WSW 7 9 4 5 1021.7 1021.6 0.0
17/02:00am 15.3 14.2 9.9 70 2.8 WSW 6 7 3 4 1022.3 1022.2 0.0
17/01:30am 15.6 14.2 9.7 68 3.1 NW 7 11 4 6 1022.8 1022.7 0.0
17/01:00am 15.9 13.4 9.8 67 3.2 WSW 13 20 7 11 1022.8 1022.7 0.0
17/12:30am 15.8 13.8 10.1 69 3.0 S 11 13 6 7 1022.5 1022.4 0.0
17/12:00am 15.7 14.0 10.0 69 3.0 SSW 9 9 5 5 1022.8 1022.7 0.0
 
Date/Time
EST
Temp
°C
App
Temp
°C
Dew
Point
Rel
Hum
%
Delta-T
°C
Wind Press
QNH
hPa
Press
MSL
hPa
Rain
since 9 am
mm
Dir
 
Spd
km/h
Gust
km/h
Spd
kts
Gust
kts
16/11:30pm 16.1 14.4 9.8 66 3.3 SW 9 13 5 7 1023.3 1023.1 0.0
16/11:00pm 16.3 15.9 9.7 65 3.5 SSE 2 6 1 3 1023.7 1023.5 0.0
16/10:30pm 16.4 13.9 9.6 64 3.6 SW 13 20 7 11 1023.9 1023.7 0.0
16/10:00pm 17.0 14.1 9.7 62 3.8 SW 15 24 8 13 1024.1 1023.9 0.0
16/09:30pm 17.3 13.6 9.5 60 4.1 SW 19 26 10 14 1023.7 1023.5 0.0

Other Formats:

Comma delimited format used in spreadsheet applications
http://www.bom.gov.au/fwo/IDN60801/IDN60801.94862.axf

JavaScript Object Notation format (JSON) in row-major order
http://www.bom.gov.au/fwo/IDN60801/IDN60801.94862.json